William P Hobby Airport

KHOU | HOU

Houston , Texas , United States

Thursday, September 19th, 2019 | 14:43

Weather

KHOU 191937Z 28005KT 2SM +RA BR BKN021 OVC033 23/22 A2994 RMK AO2 LTG DSNT ALQDS TSE14 MOV SE P0043 T02330217

Charts

67 Available

Gates

52 Available

Runways

4 Available

Events

No events for this airport


New event